sensor_id;sensor_type;location;lat;lon;timestamp;pressure;altitude;pressure_sealevel;temperature;humidity
64687;BME280;51113;53.646;-113.674;2023-12-28T00:00:45;93126.97;;;0.10;56.53
64687;BME280;51113;53.646;-113.674;2023-12-28T00:03:14;93121.88;;;0.10;56.55
64687;BME280;51113;53.646;-113.674;2023-12-28T00:05:43;93118.22;;;-0.01;56.95
64687;BME280;51113;53.646;-113.674;2023-12-28T00:08:11;93110.19;;;-0.04;57.54
64687;BME280;51113;53.646;-113.674;2023-12-28T00:10:39;93113.16;;;-0.07;57.79
64687;BME280;51113;53.646;-113.674;2023-12-28T00:13:08;93109.84;;;-0.08;57.94
64687;BME280;51113;53.646;-113.674;2023-12-28T00:15:37;93111.25;;;-0.12;57.76
64687;BME280;51113;53.646;-113.674;2023-12-28T00:18:06;93106.94;;;-0.11;58.55
64687;BME280;51113;53.646;-113.674;2023-12-28T00:20:34;93111.25;;;-0.12;58.50
64687;BME280;51113;53.646;-113.674;2023-12-28T00:23:03;93111.03;;;-0.10;58.54
64687;BME280;51113;53.646;-113.674;2023-12-28T00:25:33;93109.84;;;-0.08;58.18
64687;BME280;51113;53.646;-113.674;2023-12-28T00:28:02;93115.56;;;-0.12;58.22
64687;BME280;51113;53.646;-113.674;2023-12-28T00:30:31;93115.50;;;-0.06;57.72
64687;BME280;51113;53.646;-113.674;2023-12-28T00:33:00;93110.97;;;-0.04;57.65
64687;BME280;51113;53.646;-113.674;2023-12-28T00:35:28;93102.19;;;-0.08;57.85
64687;BME280;51113;53.646;-113.674;2023-12-28T00:37:57;93104.94;;;-0.09;57.53
64687;BME280;51113;53.646;-113.674;2023-12-28T00:40:27;93106.88;;;-0.05;57.45
64687;BME280;51113;53.646;-113.674;2023-12-28T00:42:55;93103.38;;;-0.10;57.74
64687;BME280;51113;53.646;-113.674;2023-12-28T00:45:24;93095.16;;;-0.12;57.60
64687;BME280;51113;53.646;-113.674;2023-12-28T00:47:53;93098.50;;;-0.12;57.51
64687;BME280;51113;53.646;-113.674;2023-12-28T00:50:25;93097.09;;;-0.08;57.79
64687;BME280;51113;53.646;-113.674;2023-12-28T00:52:59;93096.31;;;-0.08;57.78
64687;BME280;51113;53.646;-113.674;2023-12-28T00:55:28;93092.41;;;-0.11;57.44
64687;BME280;51113;53.646;-113.674;2023-12-28T00:57:57;93108.50;;;-0.10;57.47
64687;BME280;51113;53.646;-113.674;2023-12-28T01:00:26;93098.50;;;-0.12;57.43
64687;BME280;51113;53.646;-113.674;2023-12-28T01:02:54;93083.03;;;-0.17;57.74
64687;BME280;51113;53.646;-113.674;2023-12-28T01:05:23;93082.19;;;-0.11;57.81
64687;BME280;51113;53.646;-113.674;2023-12-28T01:07:54;93090.84;;;-0.12;57.81
64687;BME280;51113;53.646;-113.674;2023-12-28T01:10:23;93082.03;;;-0.16;57.92
64687;BME280;51113;53.646;-113.674;2023-12-28T01:12:52;93083.81;;;-0.16;57.79
64687;BME280;51113;53.646;-113.674;2023-12-28T01:15:21;93076.56;;;-0.19;58.02
64687;BME280;51113;53.646;-113.674;2023-12-28T01:17:50;93079.34;;;-0.21;57.61
64687;BME280;51113;53.646;-113.674;2023-12-28T01:20:19;93086.56;;;-0.18;58.27
64687;BME280;51113;53.646;-113.674;2023-12-28T01:22:47;93074.81;;;-0.19;57.99
64687;BME280;51113;53.646;-113.674;2023-12-28T01:25:18;93075.63;;;-0.25;58.33
64687;BME280;51113;53.646;-113.674;2023-12-28T01:27:47;93065.13;;;-0.35;58.96
64687;BME280;51113;53.646;-113.674;2023-12-28T01:30:15;93074.16;;;-0.39;59.14
64687;BME280;51113;53.646;-113.674;2023-12-28T01:32:44;93070.06;;;-0.40;59.33
64687;BME280;51113;53.646;-113.674;2023-12-28T01:35:13;93073.81;;;-0.43;59.65
64687;BME280;51113;53.646;-113.674;2023-12-28T01:37:42;93067.81;;;-0.55;59.27
64687;BME280;51113;53.646;-113.674;2023-12-28T01:40:11;93073.69;;;-0.54;60.26
64687;BME280;51113;53.646;-113.674;2023-12-28T01:42:40;93066.50;;;-0.64;59.93
64687;BME280;51113;53.646;-113.674;2023-12-28T01:45:08;93066.56;;;-0.71;60.88
64687;BME280;51113;53.646;-113.674;2023-12-28T01:47:37;93052.91;;;-0.83;61.10
64687;BME280;51113;53.646;-113.674;2023-12-28T01:50:06;93061.69;;;-0.79;60.98
64687;BME280;51113;53.646;-113.674;2023-12-28T01:52:35;93049.44;;;-0.95;61.71
64687;BME280;51113;53.646;-113.674;2023-12-28T01:55:05;93066.88;;;-0.92;61.85
64687;BME280;51113;53.646;-113.674;2023-12-28T01:57:36;93065.88;;;-0.91;61.12
64687;BME280;51113;53.646;-113.674;2023-12-28T02:00:05;93049.66;;;-0.96;61.53
64687;BME280;51113;53.646;-113.674;2023-12-28T02:02:34;93066.72;;;-0.97;62.15
64687;BME280;51113;53.646;-113.674;2023-12-28T02:05:04;93058.31;;;-1.04;62.42
64687;BME280;51113;53.646;-113.674;2023-12-28T02:07:32;93044.00;;;-1.05;62.24
64687;BME280;51113;53.646;-113.674;2023-12-28T02:10:02;93053.09;;;-1.16;62.74
64687;BME280;51113;53.646;-113.674;2023-12-28T02:12:31;93054.09;;;-1.23;62.75
64687;BME280;51113;53.646;-113.674;2023-12-28T02:15:00;93054.72;;;-1.28;63.64
64687;BME280;51113;53.646;-113.674;2023-12-28T02:17:38;93055.91;;;-1.31;63.96
64687;BME280;51113;53.646;-113.674;2023-12-28T02:20:10;93048.09;;;-1.36;63.85
64687;BME280;51113;53.646;-113.674;2023-12-28T02:22:40;93047.53;;;-1.44;64.12
64687;BME280;51113;53.646;-113.674;2023-12-28T02:25:10;93054.00;;;-1.48;64.62
64687;BME280;51113;53.646;-113.674;2023-12-28T02:27:42;93055.59;;;-1.54;65.14
64687;BME280;51113;53.646;-113.674;2023-12-28T02:30:11;93050.91;;;-1.57;64.80
64687;BME280;51113;53.646;-113.674;2023-12-28T02:32:52;93050.56;;;-1.67;65.45
64687;BME280;51113;53.646;-113.674;2023-12-28T02:35:32;93054.91;;;-1.81;65.72
64687;BME280;51113;53.646;-113.674;2023-12-28T02:38:05;93055.28;;;-1.84;65.85
64687;BME280;51113;53.646;-113.674;2023-12-28T02:40:37;93056.47;;;-1.86;66.24
64687;BME280;51113;53.646;-113.674;2023-12-28T02:43:07;93043.00;;;-1.93;66.68
64687;BME280;51113;53.646;-113.674;2023-12-28T02:45:37;93050.03;;;-1.96;66.65
64687;BME280;51113;53.646;-113.674;2023-12-28T02:48:07;93040.84;;;-1.97;66.96
64687;BME280;51113;53.646;-113.674;2023-12-28T02:50:36;93042.41;;;-1.96;66.89
64687;BME280;51113;53.646;-113.674;2023-12-28T02:53:04;93036.75;;;-1.98;67.05
64687;BME280;51113;53.646;-113.674;2023-12-28T02:55:33;93030.88;;;-2.05;67.18
64687;BME280;51113;53.646;-113.674;2023-12-28T02:58:02;93023.66;;;-2.08;67.68
64687;BME280;51113;53.646;-113.674;2023-12-28T03:00:31;93030.50;;;-2.15;67.86
64687;BME280;51113;53.646;-113.674;2023-12-28T03:03:00;93035.81;;;-2.23;68.57
64687;BME280;51113;53.646;-113.674;2023-12-28T03:05:28;93019.38;;;-2.20;67.95
64687;BME280;51113;53.646;-113.674;2023-12-28T03:07:57;93020.34;;;-2.21;68.29
64687;BME280;51113;53.646;-113.674;2023-12-28T03:10:27;93028.56;;;-2.26;68.68
64687;BME280;51113;53.646;-113.674;2023-12-28T03:12:55;93038.16;;;-2.41;69.16
64687;BME280;51113;53.646;-113.674;2023-12-28T03:15:26;93027.22;;;-2.42;69.65
64687;BME280;51113;53.646;-113.674;2023-12-28T03:17:55;93025.66;;;-2.36;69.21
64687;BME280;51113;53.646;-113.674;2023-12-28T03:20:25;93032.88;;;-2.40;69.27
64687;BME280;51113;53.646;-113.674;2023-12-28T03:22:53;93027.81;;;-2.46;69.64
64687;BME280;51113;53.646;-113.674;2023-12-28T03:25:22;93015.69;;;-2.51;69.37
64687;BME280;51113;53.646;-113.674;2023-12-28T03:27:51;93022.16;;;-2.55;70.11
64687;BME280;51113;53.646;-113.674;2023-12-28T03:30:19;93022.16;;;-2.62;69.82
64687;BME280;51113;53.646;-113.674;2023-12-28T03:32:48;93024.69;;;-2.62;70.70
64687;BME280;51113;53.646;-113.674;2023-12-28T03:35:16;93033.09;;;-2.68;70.59
64687;BME280;51113;53.646;-113.674;2023-12-28T03:37:45;93018.81;;;-2.75;70.96
64687;BME280;51113;53.646;-113.674;2023-12-28T03:40:14;93029.97;;;-2.76;71.11
64687;BME280;51113;53.646;-113.674;2023-12-28T03:42:46;93029.38;;;-2.78;71.47
64687;BME280;51113;53.646;-113.674;2023-12-28T03:45:14;93037.00;;;-2.85;71.59
64687;BME280;51113;53.646;-113.674;2023-12-28T03:47:44;93031.91;;;-2.98;71.62
64687;BME280;51113;53.646;-113.674;2023-12-28T03:50:13;93039.72;;;-3.00;72.48
64687;BME280;51113;53.646;-113.674;2023-12-28T03:52:41;93032.88;;;-2.99;71.94
64687;BME280;51113;53.646;-113.674;2023-12-28T03:55:10;93017.63;;;-3.06;nan
64687;BME280;51113;53.646;-113.674;2023-12-28T03:57:39;93016.66;;;-3.05;72.88
64687;BME280;51113;53.646;-113.674;2023-12-28T04:00:10;93015.84;;;-3.12;72.31
64687;BME280;51113;53.646;-113.674;2023-12-28T04:02:39;93021.13;;;-3.20;73.22
64687;BME280;51113;53.646;-113.674;2023-12-28T04:05:08;93026.19;;;-3.27;73.45
64687;BME280;51113;53.646;-113.674;2023-12-28T04:07:36;93023.84;;;-3.21;73.65
64687;BME280;51113;53.646;-113.674;2023-12-28T04:10:05;93026.19;;;-3.27;74.04
64687;BME280;51113;53.646;-113.674;2023-12-28T04:12:34;93021.88;;;-3.26;73.94
64687;BME280;51113;53.646;-113.674;2023-12-28T04:15:03;93030.66;;;-3.35;73.76
64687;BME280;51113;53.646;-113.674;2023-12-28T04:17:32;93032.41;;;-3.36;74.25
64687;BME280;51113;53.646;-113.674;2023-12-28T04:20:01;93035.31;;;-3.39;74.08
64687;BME280;51113;53.646;-113.674;2023-12-28T04:22:30;93035.31;;;-3.45;74.40
64687;BME280;51113;53.646;-113.674;2023-12-28T04:24:59;93029.06;;;-3.43;74.33
64687;BME280;51113;53.646;-113.674;2023-12-28T04:27:28;93013.25;;;-3.45;74.81
64687;BME280;51113;53.646;-113.674;2023-12-28T04:29:56;93017.34;;;-3.44;74.66
64687;BME280;51113;53.646;-113.674;2023-12-28T04:32:25;93025.16;;;-3.45;75.21
64687;BME280;51113;53.646;-113.674;2023-12-28T04:34:54;93036.88;;;-3.44;75.44
64687;BME280;51113;53.646;-113.674;2023-12-28T04:37:22;93049.75;;;-3.46;74.86
64687;BME280;51113;53.646;-113.674;2023-12-28T04:39:51;93031.59;;;-3.49;74.87
64687;BME280;51113;53.646;-113.674;2023-12-28T04:42:21;93032.97;;;-3.47;75.72
64687;BME280;51113;53.646;-113.674;2023-12-28T04:44:50;93035.28;;;-3.52;75.59
64687;BME280;51113;53.646;-113.674;2023-12-28T04:47:18;93026.88;;;-3.52;75.75
64687;BME280;51113;53.646;-113.674;2023-12-28T04:49:47;93010.13;;;-3.47;75.40
64687;BME280;51113;53.646;-113.674;2023-12-28T04:52:16;93004.47;;;-3.49;75.05
64687;BME280;51113;53.646;-113.674;2023-12-28T04:54:45;93001.13;;;-3.56;75.67
64687;BME280;51113;53.646;-113.674;2023-12-28T04:57:13;93010.84;;;-3.66;75.65
64687;BME280;51113;53.646;-113.674;2023-12-28T04:59:42;93014.78;;;-3.57;75.88
64687;BME280;51113;53.646;-113.674;2023-12-28T05:02:11;92998.19;;;-3.60;76.18
64687;BME280;51113;53.646;-113.674;2023-12-28T05:04:40;92996.81;;;-3.62;75.56
64687;BME280;51113;53.646;-113.674;2023-12-28T05:07:09;92994.28;;;-3.62;75.58
64687;BME280;51113;53.646;-113.674;2023-12-28T05:09:37;92988.59;;;-3.64;75.83
64687;BME280;51113;53.646;-113.674;2023-12-28T05:12:06;92989.56;;;-3.72;76.18
64687;BME280;51113;53.646;-113.674;2023-12-28T05:14:35;92993.66;;;-3.71;76.41
64687;BME280;51113;53.646;-113.674;2023-12-28T05:17:04;93004.38;;;-3.75;76.25
64687;BME280;51113;53.646;-113.674;2023-12-28T05:19:33;93018.78;;;-3.82;76.62
64687;BME280;51113;53.646;-113.674;2023-12-28T05:22:02;93039.84;;;-3.82;76.94
64687;BME280;51113;53.646;-113.674;2023-12-28T05:24:32;93019.31;;;-3.94;77.12
64687;BME280;51113;53.646;-113.674;2023-12-28T05:27:01;93028.34;;;-3.78;76.88
64687;BME280;51113;53.646;-113.674;2023-12-28T05:29:30;93025.03;;;-3.78;77.35
64687;BME280;51113;53.646;-113.674;2023-12-28T05:31:59;93015.66;;;-3.84;77.36
64687;BME280;51113;53.646;-113.674;2023-12-28T05:34:27;93017.03;;;-3.82;77.40
64687;BME280;51113;53.646;-113.674;2023-12-28T05:36:56;93021.47;;;-3.91;77.52
64687;BME280;51113;53.646;-113.674;2023-12-28T05:39:24;93017.72;;;-4.01;77.65
64687;BME280;51113;53.646;-113.674;2023-12-28T05:41:53;93015.53;;;-4.11;77.75
64687;BME280;51113;53.646;-113.674;2023-12-28T05:44:22;93008.69;;;-4.10;77.56
64687;BME280;51113;53.646;-113.674;2023-12-28T05:46:51;93000.91;;;-4.09;77.69
64687;BME280;51113;53.646;-113.674;2023-12-28T05:49:20;92994.66;;;-4.13;78.29
64687;BME280;51113;53.646;-113.674;2023-12-28T05:51:48;92992.28;;;-4.21;77.82
64687;BME280;51113;53.646;-113.674;2023-12-28T05:54:17;92991.50;;;-4.21;78.36
64687;BME280;51113;53.646;-113.674;2023-12-28T05:56:46;92981.88;;;-4.33;78.36
64687;BME280;51113;53.646;-113.674;2023-12-28T05:59:14;92982.66;;;-4.32;78.19
64687;BME280;51113;53.646;-113.674;2023-12-28T06:01:45;92983.84;;;-4.28;78.52
64687;BME280;51113;53.646;-113.674;2023-12-28T06:04:15;92982.06;;;-4.34;78.50
64687;BME280;51113;53.646;-113.674;2023-12-28T06:06:44;92976.44;;;-4.30;78.64
64687;BME280;51113;53.646;-113.674;2023-12-28T06:09:13;92980.34;;;-4.27;78.45
64687;BME280;51113;53.646;-113.674;2023-12-28T06:11:41;92993.63;;;-4.25;78.25
64687;BME280;51113;53.646;-113.674;2023-12-28T06:14:10;92986.25;;;-4.13;78.67
64687;BME280;51113;53.646;-113.674;2023-12-28T06:16:39;92994.88;;;-4.08;78.48
64687;BME280;51113;53.646;-113.674;2023-12-28T06:19:08;92991.78;;;-4.03;77.60
64687;BME280;51113;53.646;-113.674;2023-12-28T06:21:38;92987.09;;;-4.00;77.73
64687;BME280;51113;53.646;-113.674;2023-12-28T06:24:06;92988.28;;;-3.96;77.01
64687;BME280;51113;53.646;-113.674;2023-12-28T06:26:42;92996.84;;;-4.03;77.57
64687;BME280;51113;53.646;-113.674;2023-12-28T06:29:10;92980.03;;;-4.11;77.68
64687;BME280;51113;53.646;-113.674;2023-12-28T06:31:39;92996.09;;;-3.97;77.30
64687;BME280;51113;53.646;-113.674;2023-12-28T06:34:08;92993.69;;;-4.12;77.80
64687;BME280;51113;53.646;-113.674;2023-12-28T06:36:37;93001.13;;;-4.04;77.72
64687;BME280;51113;53.646;-113.674;2023-12-28T06:39:06;93002.78;;;-4.24;78.80
64687;BME280;51113;53.646;-113.674;2023-12-28T06:41:34;93005.22;;;-4.03;78.65
64687;BME280;51113;53.646;-113.674;2023-12-28T06:44:03;93010.09;;;-4.08;78.16
64687;BME280;51113;53.646;-113.674;2023-12-28T06:46:32;93015.56;;;-4.04;77.68
64687;BME280;51113;53.646;-113.674;2023-12-28T06:49:00;93002.22;;;-4.19;79.22
64687;BME280;51113;53.646;-113.674;2023-12-28T06:51:28;93004.94;;;-4.21;78.94
64687;BME280;51113;53.646;-113.674;2023-12-28T06:53:57;93007.84;;;-4.24;79.32
64687;BME280;51113;53.646;-113.674;2023-12-28T06:56:26;93021.16;;;-4.15;78.51
64687;BME280;51113;53.646;-113.674;2023-12-28T06:58:55;93018.25;;;-4.12;79.15
64687;BME280;51113;53.646;-113.674;2023-12-28T07:01:23;93000.59;;;-4.34;80.33
64687;BME280;51113;53.646;-113.674;2023-12-28T07:03:52;92998.31;;;-4.22;79.77
64687;BME280;51113;53.646;-113.674;2023-12-28T07:06:21;93016.28;;;-4.17;79.49
64687;BME280;51113;53.646;-113.674;2023-12-28T07:08:50;93003.78;;;-4.18;78.92
64687;BME280;51113;53.646;-113.674;2023-12-28T07:11:18;93026.25;;;-4.09;78.07
64687;BME280;51113;53.646;-113.674;2023-12-28T07:13:47;93048.47;;;-4.11;78.42
64687;BME280;51113;53.646;-113.674;2023-12-28T07:16:16;93034.53;;;-4.28;78.70
64687;BME280;51113;53.646;-113.674;2023-12-28T07:18:44;93030.63;;;-4.31;78.78
64687;BME280;51113;53.646;-113.674;2023-12-28T07:21:13;93047.84;;;-4.19;78.33
64687;BME280;51113;53.646;-113.674;2023-12-28T07:23:42;93043.91;;;-4.22;78.06
64687;BME280;51113;53.646;-113.674;2023-12-28T07:26:17;93041.69;;;-4.38;78.59
64687;BME280;51113;53.646;-113.674;2023-12-28T07:28:45;93039.75;;;-4.36;79.04
64687;BME280;51113;53.646;-113.674;2023-12-28T07:31:26;93026.28;;;-4.37;78.68
64687;BME280;51113;53.646;-113.674;2023-12-28T07:33:55;93050.09;;;-4.31;78.54
64687;BME280;51113;53.646;-113.674;2023-12-28T07:36:24;93045.22;;;-4.33;78.71
64687;BME280;51113;53.646;-113.674;2023-12-28T07:38:53;93034.25;;;-4.40;78.32
64687;BME280;51113;53.646;-113.674;2023-12-28T07:41:21;93039.00;;;-4.30;78.52
64687;BME280;51113;53.646;-113.674;2023-12-28T07:43:50;93018.50;;;-4.35;78.57
64687;BME280;51113;53.646;-113.674;2023-12-28T07:46:19;93010.31;;;-4.37;78.21
64687;BME280;51113;53.646;-113.674;2023-12-28T07:48:48;93014.28;;;-4.21;78.11
64687;BME280;51113;53.646;-113.674;2023-12-28T07:51:17;93035.19;;;-4.13;77.97
64687;BME280;51113;53.646;-113.674;2023-12-28T07:53:46;93034.56;;;-4.21;78.19
64687;BME280;51113;53.646;-113.674;2023-12-28T07:56:15;93054.84;;;-4.21;78.01
64687;BME280;51113;53.646;-113.674;2023-12-28T07:58:43;93068.84;;;-4.26;77.86
64687;BME280;51113;53.646;-113.674;2023-12-28T08:01:12;93093.03;;;-4.23;77.62
64687;BME280;51113;53.646;-113.674;2023-12-28T08:03:41;93082.34;;;-4.18;77.51
64687;BME280;51113;53.646;-113.674;2023-12-28T08:06:10;93066.72;;;-4.22;78.19
64687;BME280;51113;53.646;-113.674;2023-12-28T08:08:41;93064.25;;;-4.15;77.25
64687;BME280;51113;53.646;-113.674;2023-12-28T08:11:09;93068.97;;;-4.06;77.49
64687;BME280;51113;53.646;-113.674;2023-12-28T08:13:38;93068.97;;;-4.06;77.55
64687;BME280;51113;53.646;-113.674;2023-12-28T08:16:07;93088.13;;;-3.97;77.12
64687;BME280;51113;53.646;-113.674;2023-12-28T08:18:36;93092.06;;;-3.94;75.87
64687;BME280;51113;53.646;-113.674;2023-12-28T08:21:04;93082.03;;;-4.09;76.22
64687;BME280;51113;53.646;-113.674;2023-12-28T08:23:33;93074.38;;;-4.15;76.52
64687;BME280;51113;53.646;-113.674;2023-12-28T08:26:02;93065.34;;;-4.25;76.69
64687;BME280;51113;53.646;-113.674;2023-12-28T08:28:31;93057.16;;;-4.27;77.12
64687;BME280;51113;53.646;-113.674;2023-12-28T08:31:00;93063.16;;;-4.00;76.26
64687;BME280;51113;53.646;-113.674;2023-12-28T08:33:29;93067.06;;;-3.97;75.93
64687;BME280;51113;53.646;-113.674;2023-12-28T08:35:57;93078.75;;;-4.03;76.14
64687;BME280;51113;53.646;-113.674;2023-12-28T08:38:26;93081.28;;;-4.03;76.06
64687;BME280;51113;53.646;-113.674;2023-12-28T08:40:55;93085.41;;;-3.95;76.45
64687;BME280;51113;53.646;-113.674;2023-12-28T08:43:23;93108.19;;;-4.02;76.68
64687;BME280;51113;53.646;-113.674;2023-12-28T08:45:53;93089.41;;;-4.14;75.87
64687;BME280;51113;53.646;-113.674;2023-12-28T08:48:23;93063.56;;;-4.31;76.10
64687;BME280;51113;53.646;-113.674;2023-12-28T08:50:52;93096.59;;;-4.17;75.86
64687;BME280;51113;53.646;-113.674;2023-12-28T08:53:20;93089.78;;;-4.17;75.31
64687;BME280;51113;53.646;-113.674;2023-12-28T08:55:49;93083.03;;;-4.31;75.94
64687;BME280;51113;53.646;-113.674;2023-12-28T08:58:18;93092.09;;;-4.43;75.97
64687;BME280;51113;53.646;-113.674;2023-12-28T09:00:47;93092.72;;;-4.41;76.77
64687;BME280;51113;53.646;-113.674;2023-12-28T09:03:17;93081.28;;;-4.59;77.16
64687;BME280;51113;53.646;-113.674;2023-12-28T09:05:48;93077.59;;;-4.56;76.98
64687;BME280;51113;53.646;-113.674;2023-12-28T09:08:17;93082.25;;;-4.60;77.30
64687;BME280;51113;53.646;-113.674;2023-12-28T09:10:46;93070.63;;;-4.75;78.00
64687;BME280;51113;53.646;-113.674;2023-12-28T09:13:15;93077.72;;;-4.64;78.13
64687;BME280;51113;53.646;-113.674;2023-12-28T09:15:45;93073.63;;;-4.65;78.08
64687;BME280;51113;53.646;-113.674;2023-12-28T09:18:14;93067.41;;;-4.63;77.53
64687;BME280;51113;53.646;-113.674;2023-12-28T09:20:43;93057.50;;;-4.58;76.33
64687;BME280;51113;53.646;-113.674;2023-12-28T09:23:12;93062.13;;;-4.40;76.52
64687;BME280;51113;53.646;-113.674;2023-12-28T09:25:40;93039.47;;;-4.48;76.83
64687;BME280;51113;53.646;-113.674;2023-12-28T09:28:09;93056.19;;;-4.26;76.23
64687;BME280;51113;53.646;-113.674;2023-12-28T09:30:37;93051.63;;;-4.37;77.10
64687;BME280;51113;53.646;-113.674;2023-12-28T09:33:06;93065.81;;;-4.14;76.08
64687;BME280;51113;53.646;-113.674;2023-12-28T09:35:35;93052.72;;;-4.18;76.15
64687;BME280;51113;53.646;-113.674;2023-12-28T09:38:04;93049.19;;;-4.24;76.95
64687;BME280;51113;53.646;-113.674;2023-12-28T09:40:33;93047.28;;;-4.15;76.03
64687;BME280;51113;53.646;-113.674;2023-12-28T09:45:36;93065.88;;;-4.01;75.75
64687;BME280;51113;53.646;-113.674;2023-12-28T09:48:06;93064.50;;;-4.04;75.94
64687;BME280;51113;53.646;-113.674;2023-12-28T09:50:35;93063.53;;;-4.03;76.12
64687;BME280;51113;53.646;-113.674;2023-12-28T09:53:04;93058.59;;;-4.11;75.95
64687;BME280;51113;53.646;-113.674;2023-12-28T09:55:32;93079.53;;;-4.02;75.74
64687;BME280;51113;53.646;-113.674;2023-12-28T09:58:03;93067.91;;;-3.90;75.21
64687;BME280;51113;53.646;-113.674;2023-12-28T10:00:36;93068.13;;;-3.85;74.82
64687;BME280;51113;53.646;-113.674;2023-12-28T10:03:06;93074.75;;;-3.84;74.32
64687;BME280;51113;53.646;-113.674;2023-12-28T10:05:34;93077.69;;;-3.80;74.91
64687;BME280;51113;53.646;-113.674;2023-12-28T10:08:03;93073.59;;;-3.81;74.49
64687;BME280;51113;53.646;-113.674;2023-12-28T10:10:34;93080.59;;;-3.83;74.58
64687;BME280;51113;53.646;-113.674;2023-12-28T10:13:03;93085.44;;;-3.88;75.09
64687;BME280;51113;53.646;-113.674;2023-12-28T10:15:31;93085.44;;;-3.88;75.38
64687;BME280;51113;53.646;-113.674;2023-12-28T10:18:00;93091.50;;;-3.89;74.67
64687;BME280;51113;53.646;-113.674;2023-12-28T10:20:30;93097.53;;;-3.91;74.82
64687;BME280;51113;53.646;-113.674;2023-12-28T10:22:59;93097.91;;;-3.94;74.92
64687;BME280;51113;53.646;-113.674;2023-12-28T10:25:32;93111.31;;;-4.00;74.54
64687;BME280;51113;53.646;-113.674;2023-12-28T10:28:04;93111.09;;;-4.05;75.14
64687;BME280;51113;53.646;-113.674;2023-12-28T10:30:36;93120.41;;;-4.12;75.07
64687;BME280;51113;53.646;-113.674;2023-12-28T10:33:05;93105.56;;;-4.15;75.44
64687;BME280;51113;53.646;-113.674;2023-12-28T10:35:35;93096.84;;;-4.34;76.50
64687;BME280;51113;53.646;-113.674;2023-12-28T10:38:04;93099.75;;;-4.37;76.18
64687;BME280;51113;53.646;-113.674;2023-12-28T10:40:36;93118.88;;;-4.34;77.00
64687;BME280;51113;53.646;-113.674;2023-12-28T10:43:08;93110.09;;;-4.38;77.32
64687;BME280;51113;53.646;-113.674;2023-12-28T10:45:39;93086.31;;;-4.37;77.23
64687;BME280;51113;53.646;-113.674;2023-12-28T10:48:12;93099.94;;;-4.38;78.04
64687;BME280;51113;53.646;-113.674;2023-12-28T10:50:42;93100.25;;;-4.48;77.58
64687;BME280;51113;53.646;-113.674;2023-12-28T10:56:32;93106.53;;;-4.44;77.48
64687;BME280;51113;53.646;-113.674;2023-12-28T11:01:40;93097.22;;;-4.37;78.62
64687;BME280;51113;53.646;-113.674;2023-12-28T11:07:10;93099.94;;;-4.38;77.95
64687;BME280;51113;53.646;-113.674;2023-12-28T11:09:44;93092.56;;;-4.33;77.69
64687;BME280;51113;53.646;-113.674;2023-12-28T11:12:13;93089.22;;;-4.40;78.08
64687;BME280;51113;53.646;-113.674;2023-12-28T11:14:47;93099.16;;;-4.39;77.30
64687;BME280;51113;53.646;-113.674;2023-12-28T11:17:19;93075.94;;;-4.42;77.19
64687;BME280;51113;53.646;-113.674;2023-12-28T11:19:49;93085.94;;;-4.34;77.18
64687;BME280;51113;53.646;-113.674;2023-12-28T11:22:18;93061.75;;;-4.37;77.70
64687;BME280;51113;53.646;-113.674;2023-12-28T11:24:48;93076.00;;;-4.36;76.45
64687;BME280;51113;53.646;-113.674;2023-12-28T11:27:16;93079.91;;;-4.33;77.09
64687;BME280;51113;53.646;-113.674;2023-12-28T11:29:48;93103.72;;;-4.28;77.82
64687;BME280;51113;53.646;-113.674;2023-12-28T11:32:16;93130.13;;;-4.15;77.29
64687;BME280;51113;53.646;-113.674;2023-12-28T11:34:45;93118.34;;;-4.30;76.81
64687;BME280;51113;53.646;-113.674;2023-12-28T11:37:26;93098.00;;;-4.36;77.46
64687;BME280;51113;53.646;-113.674;2023-12-28T11:39:56;93106.59;;;-4.37;78.03
64687;BME280;51113;53.646;-113.674;2023-12-28T11:42:26;93110.88;;;-4.38;77.94
64687;BME280;51113;53.646;-113.674;2023-12-28T11:44:55;93102.25;;;-4.43;77.93
64687;BME280;51113;53.646;-113.674;2023-12-28T11:47:25;93117.63;;;-4.45;78.10
64687;BME280;51113;53.646;-113.674;2023-12-28T11:50:06;93123.97;;;-4.56;79.05
64687;BME280;51113;53.646;-113.674;2023-12-28T11:52:35;93129.34;;;-4.65;78.92
64687;BME280;51113;53.646;-113.674;2023-12-28T11:55:05;93121.56;;;-4.64;78.65
64687;BME280;51113;53.646;-113.674;2023-12-28T11:57:36;93083.50;;;-4.49;78.22
64687;BME280;51113;53.646;-113.674;2023-12-28T12:00:06;93088.38;;;-4.47;78.49
64687;BME280;51113;53.646;-113.674;2023-12-28T12:02:35;93086.63;;;-4.47;77.92
64687;BME280;51113;53.646;-113.674;2023-12-28T12:05:07;93086.03;;;-4.49;77.97
64687;BME280;51113;53.646;-113.674;2023-12-28T12:07:36;93075.47;;;-4.52;78.51
64687;BME280;51113;53.646;-113.674;2023-12-28T12:10:05;93070.41;;;-4.52;78.11
64687;BME280;51113;53.646;-113.674;2023-12-28T12:12:34;93069.22;;;-4.57;78.11
64687;BME280;51113;53.646;-113.674;2023-12-28T12:15:03;93104.25;;;-4.60;79.24
64687;BME280;51113;53.646;-113.674;2023-12-28T12:17:32;93129.34;;;-4.65;78.96
64687;BME280;51113;53.646;-113.674;2023-12-28T12:20:01;93130.47;;;-4.68;79.34
64687;BME280;51113;53.646;-113.674;2023-12-28T12:22:31;93122.88;;;-4.68;79.09
64687;BME280;51113;53.646;-113.674;2023-12-28T12:25:02;93129.41;;;-4.59;79.13
64687;BME280;51113;53.646;-113.674;2023-12-28T12:27:36;93124.34;;;-4.80;79.63
64687;BME280;51113;53.646;-113.674;2023-12-28T12:30:07;93138.31;;;-4.84;79.88
64687;BME280;51113;53.646;-113.674;2023-12-28T12:32:36;93137.53;;;-4.84;80.11
64687;BME280;51113;53.646;-113.674;2023-12-28T12:35:07;93149.09;;;-4.75;80.14
64687;BME280;51113;53.646;-113.674;2023-12-28T12:37:37;93157.91;;;-4.71;79.81
64687;BME280;51113;53.646;-113.674;2023-12-28T12:40:06;93172.16;;;-4.70;79.65
64687;BME280;51113;53.646;-113.674;2023-12-28T12:42:36;93170.63;;;-4.65;80.05
64687;BME280;51113;53.646;-113.674;2023-12-28T12:45:06;93190.91;;;-4.65;79.76
64687;BME280;51113;53.646;-113.674;2023-12-28T12:47:35;93181.56;;;-4.64;79.42
64687;BME280;51113;53.646;-113.674;2023-12-28T12:50:04;93181.66;;;-4.72;79.89
64687;BME280;51113;53.646;-113.674;2023-12-28T12:52:34;93177.28;;;-4.64;79.38